createdAt,value
2019-02-10T00:00:28.548Z,-911.59
2019-02-10T00:01:28.745Z,-903.85
2019-02-10T00:02:29.053Z,-914.28
2019-02-10T00:03:29.171Z,-906.63
2019-02-10T00:04:29.377Z,-909.77
2019-02-10T00:05:29.609Z,-911.14
2019-02-10T00:06:29.805Z,-911.08
2019-02-10T00:07:30.032Z,-914.17
2019-02-10T00:08:30.233Z,-907.08
2019-02-10T00:09:30.463Z,-910.49
2019-02-10T00:10:30.720Z,-909.28
2019-02-10T00:11:30.965Z,-907.14
2019-02-10T00:12:31.112Z,-906.34
2019-02-10T00:13:31.377Z,-910.53
2019-02-10T00:14:31.561Z,-906.11
2019-02-10T00:15:31.784Z,-909.12
2019-02-10T00:16:31.982Z,-905.72
2019-02-10T00:17:32.214Z,-911.09
2019-02-10T00:18:32.404Z,-909.98
2019-02-10T00:19:32.735Z,-905.10
2019-02-10T00:20:32.867Z,-904.42
2019-02-10T00:21:33.062Z,-908.56
2019-02-10T00:22:33.258Z,-911.54
2019-02-10T00:23:33.474Z,-904.16
2019-02-10T00:24:33.697Z,-907.12
2019-02-10T00:25:33.929Z,-903.88
2019-02-10T00:26:34.134Z,-905.18
2019-02-10T00:27:34.427Z,-902.53
2019-02-10T00:28:34.591Z,-900.61
2019-02-10T00:29:34.809Z,-899.71
2019-02-10T00:30:35.039Z,-903.48
2019-02-10T00:31:35.228Z,-898.44
2019-02-10T00:32:35.455Z,-898.16
2019-02-10T00:33:35.678Z,-908.47
2019-02-10T00:34:35.897Z,-899.78
2019-02-10T00:35:36.203Z,-901.02
2019-02-10T00:36:36.313Z,-898.92
2019-02-10T00:37:36.536Z,-912.81
2019-02-10T00:38:36.781Z,-898.87
2019-02-10T00:39:36.964Z,-895.81
2019-02-10T00:40:37.200Z,-900.94
2019-02-10T00:41:37.398Z,-904.02
2019-02-10T00:42:37.643Z,-903.47
2019-02-10T00:43:37.880Z,-903.19
2019-02-10T00:44:38.012Z,-884.04
2019-02-10T00:45:38.264Z,-904.13
2019-02-10T00:46:38.480Z,-906.00
2019-02-10T00:47:38.699Z,-893.66
2019-02-10T00:48:38.931Z,-903.20
2019-02-10T00:49:39.142Z,-899.38
2019-02-10T00:50:39.376Z,-905.52
2019-02-10T00:51:39.575Z,-896.05
2019-02-10T00:52:39.875Z,-908.09
2019-02-10T00:53:40.013Z,-906.01
2019-02-10T00:54:40.201Z,-913.31
2019-02-10T00:55:40.420Z,-902.85
2019-02-10T00:56:40.633Z,-896.74
2019-02-10T00:57:40.852Z,-904.53
2019-02-10T00:58:41.090Z,-912.16
2019-02-10T00:59:41.290Z,-905.76
2019-02-10T01:00:41.865Z,-909.11
2019-02-10T01:01:41.696Z,-903.31
2019-02-10T01:02:41.911Z,-898.10
2019-02-10T01:03:42.146Z,-911.42
2019-02-10T01:04:42.354Z,-903.22
2019-02-10T01:05:42.577Z,-905.47
2019-02-10T01:06:42.759Z,-906.64
2019-02-10T01:07:42.990Z,-887.76
2019-02-10T01:08:43.320Z,-896.83
2019-02-10T01:09:43.415Z,-907.85
2019-02-10T01:10:43.642Z,-908.79
2019-02-10T01:11:43.824Z,-901.43
2019-02-10T01:12:44.055Z,-916.65
2019-02-10T01:13:44.303Z,-905.11
2019-02-10T01:14:44.506Z,-891.74
2019-02-10T01:15:44.731Z,-906.41
2019-02-10T01:16:44.953Z,-902.74
2019-02-10T01:17:45.111Z,-900.37
2019-02-10T01:18:45.364Z,-912.31
2019-02-10T01:19:45.573Z,-905.93
2019-02-10T01:20:45.790Z,-903.49
2019-02-10T01:21:45.989Z,-909.95
2019-02-10T01:22:46.208Z,-913.69
2019-02-10T01:23:46.432Z,-908.51
2019-02-10T01:24:46.925Z,-911.01
2019-02-10T01:25:46.913Z,-914.65
2019-02-10T01:26:47.057Z,-912.87
2019-02-10T01:27:47.277Z,-911.80
2019-02-10T01:28:47.481Z,-913.39
2019-02-10T01:29:47.717Z,-963.31
2019-02-10T01:30:47.942Z,-964.15
2019-02-10T01:31:48.137Z,-969.19
2019-02-10T01:32:48.357Z,-968.20
2019-02-10T01:33:48.675Z,-963.74
2019-02-10T01:34:48.783Z,-969.64
2019-02-10T01:35:49.010Z,-965.28
2019-02-10T01:36:49.721Z,-966.02
2019-02-10T01:37:49.420Z,-963.97
2019-02-10T01:38:49.635Z,-962.36
2019-02-10T01:39:49.858Z,-969.20
2019-02-10T01:40:50.072Z,-966.56
2019-02-10T01:41:50.415Z,-963.25
2019-02-10T01:42:50.504Z,-966.27
2019-02-10T01:43:50.720Z,-960.32
2019-02-10T01:44:50.951Z,-966.14
2019-02-10T01:45:51.146Z,-971.14
2019-02-10T01:46:51.381Z,-962.04
2019-02-10T01:47:51.591Z,-970.16
2019-02-10T01:48:51.837Z,-964.61
2019-02-10T01:49:52.039Z,-964.72
2019-02-10T01:50:52.218Z,-965.75
2019-02-10T01:51:52.456Z,-966.48
2019-02-10T01:52:52.656Z,-965.89
2019-02-10T01:53:52.909Z,-964.97
2019-02-10T01:54:53.084Z,-962.89
2019-02-10T01:55:53.300Z,-967.49
2019-02-10T01:56:53.542Z,-968.37
2019-02-10T01:57:53.781Z,-964.62
2019-02-10T01:58:53.949Z,-966.17
2019-02-10T01:59:54.158Z,-963.88
2019-02-10T02:00:54.356Z,-961.73
2019-02-10T02:01:54.608Z,-963.73
2019-02-10T02:02:54.799Z,-968.40
2019-02-10T02:03:55.043Z,-964.44
2019-02-10T02:04:55.254Z,-968.03
2019-02-10T02:05:55.459Z,-968.28
2019-02-10T02:06:57.821Z,-965.33
2019-02-10T02:07:55.904Z,-971.18
2019-02-10T02:08:56.135Z,-966.20
2019-02-10T02:09:56.347Z,-969.94
2019-02-10T02:10:56.547Z,-964.57
2019-02-10T02:11:56.817Z,-967.51
2019-02-10T02:12:56.980Z,-962.80
2019-02-10T02:13:57.215Z,-956.19
2019-02-10T02:14:57.540Z,-966.70
2019-02-10T02:15:57.608Z,-963.22
2019-02-10T02:16:57.853Z,-963.70
2019-02-10T02:17:58.046Z,-964.71
2019-02-10T02:18:58.279Z,-966.06
2019-02-10T02:19:58.496Z,-964.75
2019-02-10T02:20:58.700Z,-969.48
2019-02-10T02:21:58.911Z,-965.48
2019-02-10T02:22:59.227Z,-970.66
2019-02-10T02:23:59.364Z,-970.62
2019-02-10T02:24:59.579Z,-967.35
2019-02-10T02:25:59.777Z,-967.10
2019-02-10T02:26:59.993Z,-966.13
2019-02-10T02:28:00.206Z,-966.85
2019-02-10T02:29:00.455Z,-964.75
2019-02-10T02:30:00.980Z,-968.12
2019-02-10T02:31:00.896Z,-969.74
2019-02-10T02:32:01.086Z,-969.41
2019-02-10T02:33:01.269Z,-965.47
2019-02-10T02:34:01.512Z,-963.01
2019-02-10T02:35:01.732Z,-969.28
2019-02-10T02:36:01.929Z,-969.19
2019-02-10T02:37:07.585Z,-969.43
2019-02-10T02:38:03.348Z,-966.37
2019-02-10T02:39:02.825Z,-964.31
2019-02-10T02:40:02.806Z,-967.20
2019-02-10T02:41:02.991Z,-966.60
2019-02-10T02:42:03.232Z,-967.21
2019-02-10T02:43:03.432Z,-966.45
2019-02-10T02:44:03.620Z,-968.89
2019-02-10T02:45:03.868Z,-966.00
2019-02-10T02:46:04.090Z,-967.65
2019-02-10T02:47:04.338Z,-962.86
2019-02-10T02:48:04.621Z,-966.95
2019-02-10T02:49:04.733Z,-965.37
2019-02-10T02:50:04.987Z,-969.68
2019-02-10T02:51:05.250Z,-969.87
2019-02-10T02:52:05.425Z,-969.55
2019-02-10T02:53:05.624Z,-962.81
2019-02-10T02:54:05.840Z,-971.86
2019-02-10T02:55:06.060Z,-967.54
2019-02-10T02:56:06.376Z,-969.24
2019-02-10T02:57:06.518Z,-965.43
2019-02-10T02:58:06.712Z,-965.49
2019-02-10T02:59:06.913Z,-973.83
2019-02-10T03:00:07.171Z,-966.05
2019-02-10T03:01:07.371Z,-972.45
2019-02-10T03:02:07.620Z,-969.24
2019-02-10T03:03:07.797Z,-965.15
2019-02-10T03:04:08.068Z,-972.14
2019-02-10T03:05:08.232Z,-968.41
2019-02-10T03:06:08.432Z,-970.67
2019-02-10T03:07:17.508Z,-969.48
2019-02-10T03:08:09.857Z,-965.24
2019-02-10T03:09:09.073Z,-962.42
2019-02-10T03:10:09.320Z,-966.81
2019-02-10T03:11:09.488Z,-970.74
2019-02-10T03:12:09.814Z,-966.00
2019-02-10T03:13:09.910Z,-967.67
2019-02-10T03:14:10.139Z,-970.07
2019-02-10T03:15:10.369Z,-968.57
2019-02-10T03:16:10.546Z,-972.18
2019-02-10T03:17:10.782Z,-970.63
2019-02-10T03:18:11.001Z,-971.29
2019-02-10T03:19:11.218Z,-968.74
2019-02-10T03:20:11.493Z,-969.22
2019-02-10T03:21:11.680Z,-967.47
2019-02-10T03:22:11.873Z,-969.07
2019-02-10T03:23:12.082Z,-963.16
2019-02-10T03:24:12.298Z,-972.51
2019-02-10T03:25:12.566Z,-976.65
2019-02-10T03:26:12.727Z,-964.45
2019-02-10T03:27:12.957Z,-967.52
2019-02-10T03:28:13.143Z,-967.37
2019-02-10T03:29:13.437Z,-975.32
2019-02-10T03:30:13.632Z,-974.61
2019-02-10T03:31:13.796Z,-971.35
2019-02-10T03:32:14.015Z,-967.63
2019-02-10T03:33:14.363Z,-969.51
2019-02-10T03:34:14.428Z,-971.16
2019-02-10T03:35:14.677Z,-970.79
2019-02-10T03:36:14.872Z,-973.27
2019-02-10T03:37:15.193Z,-973.74
2019-02-10T03:38:15.288Z,-970.17
2019-02-10T03:39:15.536Z,-968.43
2019-02-10T03:40:15.754Z,-971.71
2019-02-10T03:41:15.935Z,-968.61
2019-02-10T03:42:16.160Z,-971.10
2019-02-10T03:43:16.353Z,-974.15
2019-02-10T03:44:16.583Z,-973.22
2019-02-10T03:45:16.893Z,-971.45
2019-02-10T03:46:16.995Z,-974.48
2019-02-10T03:47:17.218Z,-972.51
2019-02-10T03:48:17.414Z,-975.84
2019-02-10T03:49:17.646Z,-974.70
2019-02-10T03:50:17.940Z,-971.51
2019-02-10T03:51:18.092Z,-971.18
2019-02-10T03:52:18.303Z,-970.88
2019-02-10T03:53:18.572Z,-974.47
2019-02-10T03:54:18.709Z,-973.07
2019-02-10T03:55:19.012Z,-968.62
2019-02-10T03:56:19.174Z,-968.87
2019-02-10T03:57:19.391Z,-969.48
2019-02-10T03:58:19.621Z,-973.33
2019-02-10T03:59:19.837Z,-972.41
2019-02-10T04:00:20.089Z,-973.28
2019-02-10T04:01:20.284Z,-975.19
2019-02-10T04:02:20.583Z,-971.31
2019-02-10T04:03:20.732Z,-969.78
2019-02-10T04:04:20.907Z,-973.17
2019-02-10T04:05:21.181Z,-967.69
2019-02-10T04:06:21.394Z,-972.94
2019-02-10T04:07:21.591Z,-971.17
2019-02-10T04:08:21.821Z,-967.79
2019-02-10T04:09:22.020Z,-967.53
2019-02-10T04:10:22.347Z,-970.75
2019-02-10T04:11:22.460Z,-970.91
2019-02-10T04:12:22.659Z,-973.66
2019-02-10T04:13:22.902Z,-974.76
2019-02-10T04:14:23.093Z,-972.21
2019-02-10T04:15:23.319Z,-971.25
2019-02-10T04:16:23.530Z,-970.22
2019-02-10T04:17:23.744Z,-969.73
2019-02-10T04:18:24.274Z,-973.95
2019-02-10T04:19:24.160Z,-972.04
2019-02-10T04:20:24.382Z,-971.43
2019-02-10T04:21:24.596Z,-970.44
2019-02-10T04:22:24.821Z,-970.90
2019-02-10T04:23:25.051Z,-973.46
2019-02-10T04:24:25.251Z,-973.27
2019-02-10T04:25:25.481Z,-970.81
2019-02-10T04:26:25.724Z,-970.55
2019-02-10T04:27:25.873Z,-973.65
2019-02-10T04:28:26.117Z,-973.17
2019-02-10T04:29:26.313Z,-965.99
2019-02-10T04:30:26.627Z,-969.38
2019-02-10T04:31:26.746Z,-972.85
2019-02-10T04:32:26.937Z,-971.02
2019-02-10T04:33:27.187Z,-972.07
2019-02-10T04:34:27.423Z,-972.49
2019-02-10T04:35:27.663Z,-973.77
2019-02-10T04:36:27.825Z,-971.17
2019-02-10T04:37:28.008Z,-976.08
2019-02-10T04:38:28.263Z,-975.11
2019-02-10T04:39:28.461Z,-975.13
2019-02-10T04:40:28.693Z,-974.00
2019-02-10T04:41:28.936Z,-973.67
2019-02-10T04:42:29.124Z,-969.75
2019-02-10T04:43:29.415Z,-973.61
2019-02-10T04:44:29.541Z,-970.01
2019-02-10T04:45:29.766Z,-969.84
2019-02-10T04:46:29.974Z,-968.13
2019-02-10T04:47:30.165Z,-973.18
2019-02-10T04:48:30.410Z,-972.04
2019-02-10T04:49:30.622Z,-973.19
2019-02-10T04:50:30.829Z,-970.14
2019-02-10T04:51:31.207Z,-973.80
2019-02-10T04:52:31.251Z,-969.53
2019-02-10T04:53:31.504Z,-974.78
2019-02-10T04:54:31.700Z,-970.66
2019-02-10T04:55:31.921Z,-970.77
2019-02-10T04:56:32.165Z,-973.69
2019-02-10T04:57:32.364Z,-975.27
2019-02-10T04:58:32.577Z,-971.89
2019-02-10T04:59:32.840Z,-970.33
2019-02-10T05:00:33.004Z,-971.13
2019-02-10T05:01:33.261Z,-970.08
2019-02-10T05:02:33.469Z,-968.27
2019-02-10T05:03:33.678Z,-969.08
2019-02-10T05:04:33.892Z,-973.61
2019-02-10T05:05:34.125Z,-973.16
2019-02-10T05:06:34.362Z,-972.15
2019-02-10T05:07:34.617Z,-968.92
2019-02-10T05:08:34.767Z,-970.79
2019-02-10T05:09:34.949Z,-969.49
2019-02-10T05:10:35.181Z,-973.97
2019-02-10T05:11:35.435Z,-968.28
2019-02-10T05:12:35.619Z,-970.31
2019-02-10T05:13:35.844Z,-974.84
2019-02-10T05:14:36.048Z,-977.92
2019-02-10T05:15:36.277Z,-971.35
2019-02-10T05:16:36.557Z,-968.65
2019-02-10T05:17:36.697Z,-969.75
2019-02-10T05:18:36.911Z,-977.14
2019-02-10T05:19:37.108Z,-968.32
2019-02-10T05:20:37.325Z,-968.70
2019-02-10T05:21:37.577Z,-972.82
2019-02-10T05:22:39.275Z,-975.52
2019-02-10T05:23:38.010Z,-978.06
2019-02-10T05:24:38.330Z,-973.58
2019-02-10T05:25:38.415Z,-974.98
2019-02-10T05:26:38.658Z,-974.45
2019-02-10T05:27:38.845Z,-972.81
2019-02-10T05:28:39.079Z,-976.13
2019-02-10T05:29:39.270Z,-970.58
2019-02-10T05:30:39.474Z,-972.07
2019-02-10T05:31:39.750Z,-975.33
2019-02-10T05:32:40.017Z,-918.60
2019-02-10T05:33:40.160Z,-914.30
2019-02-10T05:34:40.353Z,-915.18
2019-02-10T05:35:40.561Z,-911.81
2019-02-10T05:36:40.815Z,-913.54
2019-02-10T05:37:41.005Z,-916.26
2019-02-10T05:38:41.236Z,-914.98
2019-02-10T05:39:41.435Z,-918.45
2019-02-10T05:40:41.669Z,-913.03
2019-02-10T05:41:41.857Z,-916.18
2019-02-10T05:42:42.069Z,-915.63
2019-02-10T05:43:42.300Z,-917.38
2019-02-10T05:44:42.499Z,-915.03
2019-02-10T05:45:42.715Z,-916.90
2019-02-10T05:46:42.957Z,-917.27
2019-02-10T05:47:43.125Z,-921.80
2019-02-10T05:48:43.418Z,-915.74
2019-02-10T05:49:43.563Z,-917.81
2019-02-10T05:50:43.797Z,-916.35
2019-02-10T05:51:44.082Z,-916.80
2019-02-10T05:52:44.206Z,-917.55
2019-02-10T05:53:44.458Z,-918.33
2019-02-10T05:54:44.661Z,-915.22
2019-02-10T05:55:44.868Z,-910.00
2019-02-10T05:56:45.136Z,-920.37
2019-02-10T05:57:45.434Z,-912.89
2019-02-10T05:58:45.750Z,-914.96
2019-02-10T05:59:45.745Z,-915.61
2019-02-10T06:00:45.966Z,-914.12
2019-02-10T06:01:46.210Z,-915.04
2019-02-10T06:02:46.397Z,-914.90
2019-02-10T06:03:46.653Z,-911.01
2019-02-10T06:04:46.841Z,-914.98
2019-02-10T06:05:47.208Z,-911.52
2019-02-10T06:06:47.347Z,-913.58
2019-02-10T06:07:47.488Z,-906.97
2019-02-10T06:08:47.723Z,-911.97
2019-02-10T06:09:48.027Z,-911.14
2019-02-10T06:10:48.174Z,-915.23
2019-02-10T06:11:48.433Z,-917.74
2019-02-10T06:12:48.607Z,-916.96
2019-02-10T06:13:48.848Z,-916.15
2019-02-10T06:14:49.040Z,-913.69
2019-02-10T06:15:49.240Z,-914.35
2019-02-10T06:16:49.504Z,-921.49
2019-02-10T06:17:49.673Z,-923.08
2019-02-10T06:18:49.870Z,-916.02
2019-02-10T06:19:50.102Z,-920.67
2019-02-10T06:20:50.319Z,-918.66
2019-02-10T06:21:50.631Z,-916.00
2019-02-10T06:22:50.728Z,-914.34
2019-02-10T06:23:50.955Z,-920.64
2019-02-10T06:24:51.164Z,-914.53
2019-02-10T06:25:51.381Z,-917.94
2019-02-10T06:26:51.655Z,-916.29
2019-02-10T06:27:51.824Z,-908.35
2019-02-10T06:28:52.046Z,-907.43
2019-02-10T06:29:52.332Z,-912.93
2019-02-10T06:30:52.499Z,-915.10
2019-02-10T06:31:52.744Z,-916.67
2019-02-10T06:32:52.906Z,-916.20
2019-02-10T06:33:53.111Z,-914.97
2019-02-10T06:34:53.364Z,-914.68
2019-02-10T06:35:53.536Z,-923.18
2019-02-10T06:36:53.847Z,-919.92
2019-02-10T06:37:54.020Z,-920.64
2019-02-10T06:38:54.352Z,-910.19
2019-02-10T06:39:54.428Z,-905.38
2019-02-10T06:40:54.625Z,-917.04
2019-02-10T06:41:54.883Z,-910.62
2019-02-10T06:42:55.084Z,-915.15
2019-02-10T06:43:55.283Z,-916.62
2019-02-10T06:44:55.515Z,-915.53
2019-02-10T06:45:55.711Z,-919.11
2019-02-10T06:46:56.004Z,-913.37
2019-02-10T06:47:57.662Z,-909.97
2019-02-10T06:48:56.360Z,-912.00
2019-02-10T06:49:56.600Z,-914.08
2019-02-10T06:50:56.776Z,-915.40
2019-02-10T06:51:57.023Z,-915.08
2019-02-10T06:52:57.246Z,-912.58
2019-02-10T06:53:57.450Z,-919.84
2019-02-10T06:54:57.738Z,-912.91
2019-02-10T06:55:57.862Z,-917.35
2019-02-10T06:56:58.077Z,-921.39
2019-02-10T06:57:58.318Z,-921.60
2019-02-10T06:58:58.510Z,-926.51
2019-02-10T06:59:58.753Z,-919.77
2019-02-10T07:00:58.946Z,-920.94
2019-02-10T07:01:59.163Z,-921.33
2019-02-10T07:02:59.399Z,-914.62
2019-02-10T07:03:59.568Z,-901.09
2019-02-10T07:04:59.801Z,-930.79
2019-02-10T07:06:00.013Z,-907.25
2019-02-10T07:07:00.240Z,-918.14
2019-02-10T07:08:00.455Z,-907.62
2019-02-10T07:09:00.684Z,-907.72
2019-02-10T07:10:00.931Z,-908.88
2019-02-10T07:11:01.174Z,-908.98
2019-02-10T07:12:01.428Z,-910.96
2019-02-10T07:13:01.567Z,-916.50
2019-02-10T07:14:01.774Z,-912.88
2019-02-10T07:15:02.009Z,-919.97
2019-02-10T07:16:02.204Z,-913.20
2019-02-10T07:17:02.421Z,-907.14
2019-02-10T07:18:02.664Z,-913.01
2019-02-10T07:19:02.843Z,-916.76
2019-02-10T07:20:03.196Z,-918.64
2019-02-10T07:21:03.289Z,-914.46
2019-02-10T07:22:03.492Z,-916.84
2019-02-10T07:23:03.735Z,-912.73
2019-02-10T07:24:03.909Z,-918.17
2019-02-10T07:25:04.158Z,-918.04
2019-02-10T07:26:04.362Z,-915.26
2019-02-10T07:27:04.580Z,-914.61
2019-02-10T07:28:05.047Z,-906.92
2019-02-10T07:29:04.996Z,-916.83
2019-02-10T07:30:05.242Z,-913.94
2019-02-10T07:31:05.443Z,-913.73
2019-02-10T07:32:05.660Z,-919.13
2019-02-10T07:33:06.189Z,-914.45
2019-02-10T07:34:06.079Z,-910.10
2019-02-10T07:35:06.332Z,-910.55
2019-02-10T07:36:06.615Z,-913.70
2019-02-10T07:37:06.959Z,-913.23
2019-02-10T07:38:07.022Z,-913.31
2019-02-10T07:39:07.172Z,-915.59
2019-02-10T07:40:07.391Z,-916.94
2019-02-10T07:41:07.577Z,-915.43
2019-02-10T07:42:07.810Z,-918.47
2019-02-10T07:43:08.072Z,-917.40
2019-02-10T07:44:08.277Z,-916.93
2019-02-10T07:45:08.474Z,-918.12
2019-02-10T07:46:08.661Z,-915.58
2019-02-10T07:47:08.892Z,-918.92
2019-02-10T07:48:09.139Z,-910.41
2019-02-10T07:49:09.321Z,-911.33
2019-02-10T07:50:09.570Z,-917.48
2019-02-10T07:51:09.747Z,-915.98
2019-02-10T07:52:09.960Z,-915.80
2019-02-10T07:53:10.314Z,-914.19
2019-02-10T07:54:10.399Z,-914.91
2019-02-10T07:55:10.644Z,-914.61
2019-02-10T07:56:10.812Z,-915.44
2019-02-10T07:57:11.043Z,-908.74
2019-02-10T07:58:11.273Z,-912.30
2019-02-10T07:59:11.473Z,-915.29
2019-02-10T08:00:11.710Z,-913.12
2019-02-10T08:01:12.018Z,-914.24
2019-02-10T08:02:12.120Z,-915.79
2019-02-10T08:03:12.351Z,-913.41
2019-02-10T08:04:12.569Z,-915.74
2019-02-10T08:05:12.792Z,-914.51
2019-02-10T08:06:12.967Z,-913.69
2019-02-10T08:07:13.183Z,-915.20
2019-02-10T08:08:13.437Z,-914.46
2019-02-10T08:09:13.675Z,-912.37
2019-02-10T08:10:13.839Z,-914.99
2019-02-10T08:11:14.064Z,-918.33
2019-02-10T08:12:14.269Z,-914.99
2019-02-10T08:13:14.513Z,-919.87
2019-02-10T08:14:14.812Z,-914.18
2019-02-10T08:15:14.927Z,-915.04
2019-02-10T08:16:15.162Z,-914.10
2019-02-10T08:17:15.452Z,-916.46
2019-02-10T08:18:15.562Z,-914.59
2019-02-10T08:19:15.781Z,-913.17
2019-02-10T08:20:15.997Z,-915.84
2019-02-10T08:21:16.221Z,-913.72
2019-02-10T08:22:16.432Z,-918.62
2019-02-10T08:23:16.669Z,-919.84
2019-02-10T08:24:21.173Z,-914.02
2019-02-10T08:25:17.099Z,-914.38
2019-02-10T08:26:17.345Z,-914.72
2019-02-10T08:27:17.504Z,-914.61
2019-02-10T08:28:17.766Z,-916.98
2019-02-10T08:29:17.936Z,-920.64
2019-02-10T08:30:18.150Z,-905.95
2019-02-10T08:31:18.383Z,-910.15
2019-02-10T08:32:18.583Z,-910.98
2019-02-10T08:33:18.833Z,-913.42
2019-02-10T08:34:19.103Z,-920.13
2019-02-10T08:35:19.226Z,-916.02
2019-02-10T08:36:19.458Z,-907.64
2019-02-10T08:37:19.656Z,-906.15
2019-02-10T08:38:19.884Z,-906.52
2019-02-10T08:39:20.077Z,-912.05
2019-02-10T08:40:20.298Z,-914.08
2019-02-10T08:41:20.546Z,-907.74
2019-02-10T08:42:20.887Z,-908.93
2019-02-10T08:43:20.975Z,-908.91
2019-02-10T08:44:21.186Z,-915.13
2019-02-10T08:45:21.384Z,-909.80
2019-02-10T08:46:21.618Z,-909.60
2019-02-10T08:47:21.831Z,-905.27
2019-02-10T08:48:22.052Z,-890.12
2019-02-10T08:49:22.247Z,-908.59
2019-02-10T08:50:22.535Z,-899.80
2019-02-10T08:51:22.678Z,-904.56
2019-02-10T08:52:22.896Z,-904.24
2019-02-10T08:53:23.117Z,-901.81
2019-02-10T08:54:23.334Z,-896.33
2019-02-10T08:55:23.530Z,-900.36
2019-02-10T08:56:23.748Z,-902.00
2019-02-10T08:57:24.157Z,-884.73
2019-02-10T08:58:24.221Z,-897.46
2019-02-10T08:59:24.366Z,-904.46
2019-02-10T09:00:24.598Z,-907.41
2019-02-10T09:01:24.820Z,-897.23
2019-02-10T09:02:25.038Z,-905.88
2019-02-10T09:03:25.282Z,-916.46
2019-02-10T09:04:25.500Z,-906.20
2019-02-10T09:05:25.696Z,-892.07
2019-02-10T09:06:26.407Z,-897.73
2019-02-10T09:07:26.336Z,-908.05
2019-02-10T09:08:26.337Z,-902.98
2019-02-10T09:09:26.556Z,-904.20
2019-02-10T09:10:26.770Z,-893.99
2019-02-10T09:11:27.002Z,-900.51
2019-02-10T09:12:27.205Z,-898.03
2019-02-10T09:13:27.427Z,-894.63
2019-02-10T09:14:27.888Z,-905.89
2019-02-10T09:15:28.038Z,-895.31
2019-02-10T09:16:28.081Z,-893.26
2019-02-10T09:17:28.285Z,-889.84
2019-02-10T09:18:28.503Z,-902.62
2019-02-10T09:19:28.735Z,-891.89
2019-02-10T09:20:28.944Z,-893.16
2019-02-10T09:21:29.173Z,-888.32
2019-02-10T09:22:29.383Z,-893.48
2019-02-10T09:23:29.658Z,-889.17
2019-02-10T09:24:29.805Z,-889.60
2019-02-10T09:25:30.001Z,-900.96
2019-02-10T09:26:30.248Z,-902.99
2019-02-10T09:27:30.436Z,-901.11
2019-02-10T09:28:30.637Z,-902.83
2019-02-10T09:29:30.881Z,-907.87
2019-02-10T09:30:31.093Z,-901.11
2019-02-10T09:31:33.107Z,-902.38
2019-02-10T09:32:31.485Z,-895.81
2019-02-10T09:33:31.756Z,-898.48
2019-02-10T09:34:31.943Z,-906.12
2019-02-10T09:35:32.149Z,-904.35
2019-02-10T09:36:32.372Z,-904.08
2019-02-10T09:37:32.573Z,-906.78
2019-02-10T09:38:32.782Z,-905.48
2019-02-10T09:39:33.048Z,-905.48
2019-02-10T09:40:33.295Z,-903.14
2019-02-10T09:41:33.460Z,-897.80
2019-02-10T09:42:34.409Z,-902.10
2019-02-10T09:43:33.873Z,-906.64
2019-02-10T09:44:34.092Z,-904.08
2019-02-10T09:45:34.311Z,-900.65
2019-02-10T09:46:34.553Z,-893.29
2019-02-10T09:47:34.753Z,-909.36
2019-02-10T09:48:35.085Z,-895.10
2019-02-10T09:49:35.184Z,-907.60
2019-02-10T09:50:35.402Z,-903.25
2019-02-10T09:51:35.627Z,-899.66
2019-02-10T09:52:35.828Z,-898.81
2019-02-10T09:53:36.417Z,-899.28
2019-02-10T09:54:36.273Z,-902.99
2019-02-10T09:55:36.463Z,-901.13
2019-02-10T09:56:37.410Z,-905.93
2019-02-10T09:57:36.896Z,-903.43
2019-02-10T09:58:37.116Z,-908.97
2019-02-10T09:59:37.332Z,-905.33
2019-02-10T10:00:37.557Z,-898.50
2019-02-10T10:01:37.776Z,-902.41
2019-02-10T10:02:37.980Z,-903.99
2019-02-10T10:03:38.189Z,-895.08
2019-02-10T10:04:38.441Z,-893.53
2019-02-10T10:05:38.597Z,-900.46
2019-02-10T10:06:38.842Z,-901.93
2019-02-10T10:07:39.037Z,-903.55
2019-02-10T10:08:39.245Z,-905.02
2019-02-10T10:09:39.487Z,-909.73
2019-02-10T10:10:39.676Z,-901.06
2019-02-10T10:11:39.901Z,-897.39
2019-02-10T10:12:40.172Z,-907.29
2019-02-10T10:13:40.304Z,-897.46
2019-02-10T10:14:40.547Z,-901.17
2019-02-10T10:15:40.753Z,-913.98
2019-02-10T10:16:40.963Z,-897.19
2019-02-10T10:17:41.181Z,-899.28
2019-02-10T10:18:41.397Z,-898.52
2019-02-10T10:19:41.629Z,-893.99
2019-02-10T10:20:41.888Z,-914.11
2019-02-10T10:21:42.098Z,-896.44
2019-02-10T10:22:42.299Z,-901.27
2019-02-10T10:23:42.468Z,-896.02
2019-02-10T10:24:49.315Z,-885.27
2019-02-10T10:25:43.891Z,-892.85
2019-02-10T10:26:43.113Z,-899.85
2019-02-10T10:27:43.374Z,-895.52
2019-02-10T10:28:43.570Z,-895.67
2019-02-10T10:29:43.913Z,-901.50
2019-02-10T10:30:43.994Z,-960.89
2019-02-10T10:31:44.196Z,-956.51
2019-02-10T10:32:44.442Z,-949.79
2019-02-10T10:33:44.664Z,-944.31
2019-02-10T10:34:44.894Z,-965.41
2019-02-10T10:35:45.143Z,-953.61
2019-02-10T10:36:45.310Z,-949.47
2019-02-10T10:37:45.648Z,-902.51
2019-02-10T10:38:45.735Z,-953.69
2019-02-10T10:39:45.967Z,-954.54
2019-02-10T10:40:46.163Z,-945.97
2019-02-10T10:41:46.379Z,-946.00
2019-02-10T10:42:46.607Z,-948.18
2019-02-10T10:43:46.812Z,-966.64
2019-02-10T10:44:47.050Z,-952.14
2019-02-10T10:45:47.314Z,-945.32
2019-02-10T10:46:47.450Z,-948.22
2019-02-10T10:47:47.693Z,-953.82
2019-02-10T10:48:47.869Z,-968.48
2019-02-10T10:49:48.119Z,-949.98
2019-02-10T10:50:48.325Z,-957.77
2019-02-10T10:51:48.527Z,-955.40
2019-02-10T10:52:48.987Z,-954.16
2019-02-10T10:53:48.972Z,-961.19
2019-02-10T10:54:49.184Z,-954.80
2019-02-10T10:55:49.418Z,-951.01
2019-02-10T10:56:49.623Z,-954.59
2019-02-10T10:57:49.856Z,-954.87
2019-02-10T10:58:50.047Z,-905.57
2019-02-10T10:59:50.295Z,-899.55
2019-02-10T11:00:50.479Z,-904.81
2019-02-10T11:01:50.717Z,-900.35
2019-02-10T11:02:51.030Z,-897.17
2019-02-10T11:03:51.127Z,-897.55
2019-02-10T11:04:51.348Z,-897.26
2019-02-10T11:05:51.600Z,-887.48
2019-02-10T11:06:51.787Z,-901.54
2019-02-10T11:07:52.062Z,-901.66
2019-02-10T11:08:52.216Z,-900.00
2019-02-10T11:09:52.447Z,-897.04
2019-02-10T11:10:52.716Z,-900.14
2019-02-10T11:11:52.857Z,-905.67
2019-02-10T11:12:53.099Z,-904.45
2019-02-10T11:13:53.291Z,-900.55
2019-02-10T11:14:53.528Z,-904.26
2019-02-10T11:15:53.702Z,-898.82
2019-02-10T11:16:53.949Z,-899.40
2019-02-10T11:17:54.180Z,-905.46
2019-02-10T11:18:54.435Z,-908.13
2019-02-10T11:19:54.582Z,-900.43
2019-02-10T11:20:54.775Z,-906.53
2019-02-10T11:21:55.015Z,-900.29
2019-02-10T11:22:55.233Z,-907.18
2019-02-10T11:23:55.433Z,-903.21
2019-02-10T11:24:55.650Z,-901.16
2019-02-10T11:25:55.863Z,-902.95
2019-02-10T11:26:56.125Z,-902.01
2019-02-10T11:27:56.295Z,-899.83
2019-02-10T11:28:56.499Z,-898.56
2019-02-10T11:29:56.708Z,-900.53
2019-02-10T11:30:56.945Z,-897.64
2019-02-10T11:31:57.150Z,-900.76
2019-02-10T11:32:57.378Z,-900.61
2019-02-10T11:33:57.600Z,-899.83
2019-02-10T11:34:57.841Z,-902.82
2019-02-10T11:35:58.092Z,-906.70
2019-02-10T11:36:58.277Z,-904.12
2019-02-10T11:37:58.541Z,-908.00
2019-02-10T11:38:58.706Z,-910.23
2019-02-10T11:39:58.916Z,-892.67
2019-02-10T11:40:59.149Z,-901.07
2019-02-10T11:41:59.350Z,-900.31
2019-02-10T11:43:00.051Z,-902.63
2019-02-10T11:43:59.885Z,-906.62
2019-02-10T11:45:00.007Z,-901.27
2019-02-10T11:46:00.237Z,-901.06
2019-02-10T11:47:00.443Z,-899.91
2019-02-10T11:48:00.653Z,-899.02
2019-02-10T11:49:00.861Z,-902.17
2019-02-10T11:50:01.079Z,-898.55
2019-02-10T11:51:01.309Z,-902.49
2019-02-10T11:52:01.638Z,-902.56
2019-02-10T11:53:01.740Z,-960.64
2019-02-10T11:54:01.958Z,-960.06
2019-02-10T11:55:02.169Z,-960.34
2019-02-10T11:56:02.392Z,-949.03
2019-02-10T11:57:02.615Z,-954.01
2019-02-10T11:58:02.817Z,-962.05
2019-02-10T11:59:03.013Z,-963.66
2019-02-10T12:00:03.311Z,-955.96
2019-02-10T12:01:03.509Z,-960.31
2019-02-10T12:02:03.678Z,-952.24
2019-02-10T12:03:03.902Z,-953.42
2019-02-10T12:04:04.081Z,-954.58
2019-02-10T12:05:04.313Z,-951.94
2019-02-10T12:06:04.559Z,-951.22
2019-02-10T12:07:04.771Z,-953.89
2019-02-10T12:08:05.041Z,-957.90